createdAt,value
2019-01-29T00:03:17.000Z,35.9
2019-01-29T00:13:17.000Z,36
2019-01-29T00:23:18.000Z,36
2019-01-29T00:33:17.000Z,35.9
2019-01-29T00:43:17.000Z,36
2019-01-29T00:53:17.000Z,36.4
2019-01-29T01:03:17.000Z,36.4
2019-01-29T01:13:17.000Z,36.4
2019-01-29T01:23:17.000Z,36.5
2019-01-29T01:33:17.000Z,36.6
2019-01-29T01:43:17.000Z,36.5
2019-01-29T01:53:17.000Z,36.7
2019-01-29T02:03:17.000Z,36.4
2019-01-29T02:13:17.000Z,36.6
2019-01-29T02:23:17.000Z,36.4
2019-01-29T02:33:17.000Z,36.3
2019-01-29T02:43:17.000Z,36.2
2019-01-29T02:53:17.000Z,36.1
2019-01-29T03:03:17.000Z,36.4
2019-01-29T03:13:17.000Z,36
2019-01-29T03:23:17.000Z,36.1
2019-01-29T03:33:17.000Z,36.1
2019-01-29T03:43:17.000Z,36.2
2019-01-29T03:53:17.000Z,36.5
2019-01-29T04:03:17.000Z,36.5
2019-01-29T04:13:17.000Z,36.5
2019-01-29T04:23:18.000Z,36.5
2019-01-29T04:33:17.000Z,36.6
2019-01-29T04:43:18.000Z,36.6
2019-01-29T04:53:19.000Z,36.5
2019-01-29T05:03:18.000Z,36.6
2019-01-29T05:13:18.000Z,36.3
2019-01-29T05:23:18.000Z,36.1
2019-01-29T05:33:18.000Z,36.4
2019-01-29T05:43:18.000Z,36.6
2019-01-29T05:53:18.000Z,36.4
2019-01-29T06:03:18.000Z,36.3
2019-01-29T06:13:18.000Z,36.5
2019-01-29T06:23:18.000Z,36.3
2019-01-29T06:33:18.000Z,36.3
2019-01-29T06:43:18.000Z,36.2
2019-01-29T06:53:18.000Z,36.5
2019-01-29T07:03:18.000Z,36.6
2019-01-29T07:13:18.000Z,37.4
2019-01-29T07:23:18.000Z,43.1
2019-01-29T07:33:18.000Z,47.5
2019-01-29T07:43:18.000Z,48.6
2019-01-29T07:53:18.000Z,46.8
2019-01-29T08:03:18.000Z,46.4
2019-01-29T08:13:18.000Z,46.7
2019-01-29T08:23:18.000Z,46.6
2019-01-29T08:33:18.000Z,46.4
2019-01-29T08:43:18.000Z,46.6
2019-01-29T08:53:18.000Z,46.4
2019-01-29T09:03:18.000Z,46.5
2019-01-29T09:13:18.000Z,46.6
2019-01-29T09:23:18.000Z,46.4
2019-01-29T09:33:18.000Z,46.2
2019-01-29T09:43:18.000Z,46.1
2019-01-29T09:53:18.000Z,46.2
2019-01-29T10:03:18.000Z,46.2
2019-01-29T10:13:18.000Z,45.9
2019-01-29T10:23:18.000Z,46
2019-01-29T10:33:18.000Z,46.1
2019-01-29T10:43:18.000Z,46.1
2019-01-29T10:53:18.000Z,46.2
2019-01-29T11:03:18.000Z,46.1
2019-01-29T11:13:18.000Z,46.1
2019-01-29T11:23:19.000Z,46.2
2019-01-29T11:33:19.000Z,46.2
2019-01-29T11:43:19.000Z,46.2
2019-01-29T11:53:19.000Z,46.1
2019-01-29T12:03:19.000Z,46.1
2019-01-29T12:13:19.000Z,46.1
2019-01-29T12:23:19.000Z,46.3
2019-01-29T12:33:19.000Z,46.4
2019-01-29T12:43:19.000Z,46.4
2019-01-29T12:53:19.000Z,45.7
2019-01-29T13:03:19.000Z,45.7
2019-01-29T13:13:19.000Z,45.9
2019-01-29T13:23:19.000Z,46
2019-01-29T13:33:19.000Z,46
2019-01-29T13:43:19.000Z,46.1
2019-01-29T13:53:19.000Z,46
2019-01-29T14:03:20.000Z,46.3
2019-01-29T14:13:19.000Z,46.8
2019-01-29T14:23:19.000Z,47.3
2019-01-29T14:33:19.000Z,47.6
2019-01-29T14:43:19.000Z,47.5
2019-01-29T14:53:20.000Z,47.4
2019-01-29T15:03:19.000Z,47.2
2019-01-29T15:13:19.000Z,46.9
2019-01-29T15:23:19.000Z,47.3
2019-01-29T15:33:19.000Z,47.3
2019-01-29T15:43:19.000Z,47.4
2019-01-29T15:53:19.000Z,46.9
2019-01-29T16:03:19.000Z,46.9
2019-01-29T16:13:19.000Z,47
2019-01-29T16:23:19.000Z,46.6
2019-01-29T16:33:19.000Z,46.3
2019-01-29T16:43:19.000Z,46.5
2019-01-29T16:53:20.000Z,46.5
2019-01-29T17:03:19.000Z,46.5
2019-01-29T17:13:19.000Z,46.3
2019-01-29T17:23:19.000Z,46.3
2019-01-29T17:33:19.000Z,46.3
2019-01-29T17:43:19.000Z,46.3
2019-01-29T17:53:19.000Z,46.2
2019-01-29T18:03:19.000Z,46.2
2019-01-29T18:23:20.000Z,46.1
2019-01-29T18:33:20.000Z,45.9
2019-01-29T18:43:20.000Z,45.9
2019-01-29T18:53:20.000Z,45.7
2019-01-29T19:03:20.000Z,45.7
2019-01-29T19:13:20.000Z,45.7
2019-01-29T19:23:23.000Z,45.7
2019-01-29T19:33:20.000Z,45.6
2019-01-29T19:43:20.000Z,45.9
2019-01-29T19:53:20.000Z,46.6
2019-01-29T20:03:20.000Z,47.1
2019-01-29T20:13:20.000Z,47.4
2019-01-29T20:23:20.000Z,49.4
2019-01-29T20:33:22.000Z,51.3
2019-01-29T20:43:21.000Z,53.1
2019-01-29T20:53:20.000Z,54.2
2019-01-29T21:13:20.000Z,54.1
2019-01-29T21:23:20.000Z,56
2019-01-29T21:33:20.000Z,57.4
2019-01-29T21:43:20.000Z,58.3
2019-01-29T21:53:20.000Z,58.6
2019-01-29T22:03:20.000Z,43.5
2019-01-29T22:13:20.000Z,34.4
2019-01-29T22:23:20.000Z,32.8
2019-01-29T22:33:20.000Z,32.8
2019-01-29T22:43:20.000Z,32.8
2019-01-29T22:53:20.000Z,31.9
2019-01-29T23:03:20.000Z,32.1
2019-01-29T23:13:20.000Z,31.9
2019-01-29T23:23:20.000Z,31.4
2019-01-29T23:33:20.000Z,31.5
2019-01-29T23:43:20.000Z,31.7
2019-01-29T23:53:20.000Z,31.4
